sensor_id;sensor_type;location;lat;lon;timestamp;temperature;humidity
13976;DHT22;7062;49.792;9.946;2023-06-14T00:00:20;21.70;79.30
13976;DHT22;7062;49.792;9.946;2023-06-14T00:02:46;21.90;81.00
13976;DHT22;7062;49.792;9.946;2023-06-14T00:05:12;21.80;82.30
13976;DHT22;7062;49.792;9.946;2023-06-14T00:07:42;21.90;83.10
13976;DHT22;7062;49.792;9.946;2023-06-14T00:10:09;21.80;69.60
13976;DHT22;7062;49.792;9.946;2023-06-14T00:12:36;21.70;84.60
13976;DHT22;7062;49.792;9.946;2023-06-14T00:15:02;21.60;84.90
13976;DHT22;7062;49.792;9.946;2023-06-14T00:17:28;21.70;83.70
13976;DHT22;7062;49.792;9.946;2023-06-14T00:19:56;21.60;76.60
13976;DHT22;7062;49.792;9.946;2023-06-14T00:22:22;21.50;71.50
13976;DHT22;7062;49.792;9.946;2023-06-14T00:24:50;21.50;69.50
13976;DHT22;7062;49.792;9.946;2023-06-14T00:27:16;21.50;69.60
13976;DHT22;7062;49.792;9.946;2023-06-14T00:29:42;21.40;69.70
13976;DHT22;7062;49.792;9.946;2023-06-14T00:32:07;21.40;70.00
13976;DHT22;7062;49.792;9.946;2023-06-14T00:34:33;21.40;70.00
13976;DHT22;7062;49.792;9.946;2023-06-14T00:36:59;21.40;70.10
13976;DHT22;7062;49.792;9.946;2023-06-14T00:39:25;21.30;70.40
13976;DHT22;7062;49.792;9.946;2023-06-14T00:41:51;21.20;70.60
13976;DHT22;7062;49.792;9.946;2023-06-14T00:44:17;21.20;70.40
13976;DHT22;7062;49.792;9.946;2023-06-14T00:46:44;21.30;70.50
13976;DHT22;7062;49.792;9.946;2023-06-14T00:49:12;21.20;70.40
13976;DHT22;7062;49.792;9.946;2023-06-14T00:51:41;21.10;70.70
13976;DHT22;7062;49.792;9.946;2023-06-14T00:54:06;21.10;70.90
13976;DHT22;7062;49.792;9.946;2023-06-14T00:56:32;21.10;71.00
13976;DHT22;7062;49.792;9.946;2023-06-14T00:58:58;21.00;71.40
13976;DHT22;7062;49.792;9.946;2023-06-14T01:01:24;20.90;71.50
13976;DHT22;7062;49.792;9.946;2023-06-14T01:03:49;20.90;71.50
13976;DHT22;7062;49.792;9.946;2023-06-14T01:06:42;20.90;71.50
13976;DHT22;7062;49.792;9.946;2023-06-14T01:12:20;20.80;72.00
13976;DHT22;7062;49.792;9.946;2023-06-14T01:14:48;20.90;72.10
13976;DHT22;7062;49.792;9.946;2023-06-14T01:17:15;20.80;72.20
13976;DHT22;7062;49.792;9.946;2023-06-14T01:19:43;20.70;72.50
13976;DHT22;7062;49.792;9.946;2023-06-14T01:22:10;20.70;72.40
13976;DHT22;7062;49.792;9.946;2023-06-14T01:24:36;20.70;72.90
13976;DHT22;7062;49.792;9.946;2023-06-14T01:27:02;21.00;73.10
13976;DHT22;7062;49.792;9.946;2023-06-14T01:29:29;20.60;72.90
13976;DHT22;7062;49.792;9.946;2023-06-14T01:31:58;20.60;72.90
13976;DHT22;7062;49.792;9.946;2023-06-14T01:34:25;20.60;74.90
13976;DHT22;7062;49.792;9.946;2023-06-14T01:36:52;20.50;75.40
13976;DHT22;7062;49.792;9.946;2023-06-14T01:39:20;20.50;74.40
13976;DHT22;7062;49.792;9.946;2023-06-14T01:41:47;20.50;75.80
13976;DHT22;7062;49.792;9.946;2023-06-14T01:44:14;20.60;75.90
13976;DHT22;7062;49.792;9.946;2023-06-14T01:46:42;20.40;75.20
13976;DHT22;7062;49.792;9.946;2023-06-14T01:49:08;20.50;75.40
13976;DHT22;7062;49.792;9.946;2023-06-14T01:51:33;20.50;73.70
13976;DHT22;7062;49.792;9.946;2023-06-14T01:53:59;20.50;73.70
13976;DHT22;7062;49.792;9.946;2023-06-14T01:56:25;20.50;75.90
13976;DHT22;7062;49.792;9.946;2023-06-14T01:58:51;20.40;74.00
13976;DHT22;7062;49.792;9.946;2023-06-14T02:01:17;20.40;74.10
13976;DHT22;7062;49.792;9.946;2023-06-14T02:03:44;20.30;76.10
13976;DHT22;7062;49.792;9.946;2023-06-14T02:06:10;20.40;77.30
13976;DHT22;7062;49.792;9.946;2023-06-14T02:08:36;20.30;75.90
13976;DHT22;7062;49.792;9.946;2023-06-14T02:11:01;20.40;74.40
13976;DHT22;7062;49.792;9.946;2023-06-14T02:13:27;20.30;74.40
13976;DHT22;7062;49.792;9.946;2023-06-14T02:15:53;20.20;74.60
13976;DHT22;7062;49.792;9.946;2023-06-14T02:18:20;20.20;74.50
13976;DHT22;7062;49.792;9.946;2023-06-14T02:20:46;20.20;74.80
13976;DHT22;7062;49.792;9.946;2023-06-14T02:23:12;20.20;74.70
13976;DHT22;7062;49.792;9.946;2023-06-14T02:25:38;20.20;74.80
13976;DHT22;7062;49.792;9.946;2023-06-14T02:28:05;20.20;75.00
13976;DHT22;7062;49.792;9.946;2023-06-14T02:30:31;20.30;74.70
13976;DHT22;7062;49.792;9.946;2023-06-14T02:32:57;20.20;75.10
13976;DHT22;7062;49.792;9.946;2023-06-14T02:35:22;20.30;75.20
13976;DHT22;7062;49.792;9.946;2023-06-14T02:37:52;20.20;75.10
13976;DHT22;7062;49.792;9.946;2023-06-14T02:40:18;20.20;75.10
13976;DHT22;7062;49.792;9.946;2023-06-14T02:42:44;20.20;75.20
13976;DHT22;7062;49.792;9.946;2023-06-14T02:45:09;20.10;75.30
13976;DHT22;7062;49.792;9.946;2023-06-14T02:47:35;20.20;75.20
13976;DHT22;7062;49.792;9.946;2023-06-14T02:50:01;20.10;75.20
13976;DHT22;7062;49.792;9.946;2023-06-14T02:52:28;20.10;75.40
13976;DHT22;7062;49.792;9.946;2023-06-14T02:54:54;20.10;75.40
13976;DHT22;7062;49.792;9.946;2023-06-14T02:57:23;20.10;75.50
13976;DHT22;7062;49.792;9.946;2023-06-14T02:59:49;20.00;75.60
13976;DHT22;7062;49.792;9.946;2023-06-14T03:02:14;20.00;75.70
13976;DHT22;7062;49.792;9.946;2023-06-14T03:04:40;19.90;75.70
13976;DHT22;7062;49.792;9.946;2023-06-14T03:07:06;19.80;76.00
13976;DHT22;7062;49.792;9.946;2023-06-14T03:09:35;19.80;76.40
13976;DHT22;7062;49.792;9.946;2023-06-14T03:12:02;19.80;76.20
13976;DHT22;7062;49.792;9.946;2023-06-14T03:14:28;19.80;76.20
13976;DHT22;7062;49.792;9.946;2023-06-14T03:16:56;19.80;76.20
13976;DHT22;7062;49.792;9.946;2023-06-14T03:19:22;19.80;76.60
13976;DHT22;7062;49.792;9.946;2023-06-14T03:21:48;19.70;76.80
13976;DHT22;7062;49.792;9.946;2023-06-14T03:24:15;19.60;76.80
13976;DHT22;7062;49.792;9.946;2023-06-14T03:26:42;19.70;76.70
13976;DHT22;7062;49.792;9.946;2023-06-14T03:29:07;19.60;76.70
13976;DHT22;7062;49.792;9.946;2023-06-14T03:31:34;19.70;76.80
13976;DHT22;7062;49.792;9.946;2023-06-14T03:34:00;19.60;76.80
13976;DHT22;7062;49.792;9.946;2023-06-14T03:36:26;19.60;76.80
13976;DHT22;7062;49.792;9.946;2023-06-14T03:38:53;19.50;77.30
13976;DHT22;7062;49.792;9.946;2023-06-14T03:41:19;19.50;77.30
13976;DHT22;7062;49.792;9.946;2023-06-14T03:43:45;19.60;77.30
13976;DHT22;7062;49.792;9.946;2023-06-14T03:46:11;20.00;77.50
13976;DHT22;7062;49.792;9.946;2023-06-14T03:48:36;19.50;77.50
13976;DHT22;7062;49.792;9.946;2023-06-14T03:51:02;19.50;77.70
13976;DHT22;7062;49.792;9.946;2023-06-14T03:53:28;19.50;77.60
13976;DHT22;7062;49.792;9.946;2023-06-14T03:55:55;19.50;77.70
13976;DHT22;7062;49.792;9.946;2023-06-14T03:58:20;19.40;77.80
13976;DHT22;7062;49.792;9.946;2023-06-14T04:00:47;19.40;77.80
13976;DHT22;7062;49.792;9.946;2023-06-14T04:03:12;19.40;77.90
13976;DHT22;7062;49.792;9.946;2023-06-14T04:05:41;19.40;78.00
13976;DHT22;7062;49.792;9.946;2023-06-14T04:08:14;19.40;78.00
13976;DHT22;7062;49.792;9.946;2023-06-14T04:10:41;19.40;78.10
13976;DHT22;7062;49.792;9.946;2023-06-14T04:13:07;19.40;78.20
13976;DHT22;7062;49.792;9.946;2023-06-14T04:15:32;19.30;78.40
13976;DHT22;7062;49.792;9.946;2023-06-14T04:17:58;19.40;78.30
13976;DHT22;7062;49.792;9.946;2023-06-14T04:20:24;19.40;78.30
13976;DHT22;7062;49.792;9.946;2023-06-14T04:22:51;19.50;78.50
13976;DHT22;7062;49.792;9.946;2023-06-14T04:25:18;19.40;78.70
13976;DHT22;7062;49.792;9.946;2023-06-14T04:27:43;19.40;78.80
13976;DHT22;7062;49.792;9.946;2023-06-14T04:30:09;19.30;78.90
13976;DHT22;7062;49.792;9.946;2023-06-14T04:32:35;19.70;79.40
13976;DHT22;7062;49.792;9.946;2023-06-14T04:35:08;19.30;79.10
13976;DHT22;7062;49.792;9.946;2023-06-14T04:37:34;19.30;79.20
13976;DHT22;7062;49.792;9.946;2023-06-14T04:40:00;19.40;80.10
13976;DHT22;7062;49.792;9.946;2023-06-14T04:42:25;19.30;79.50
13976;DHT22;7062;49.792;9.946;2023-06-14T04:44:56;19.40;79.40
13976;DHT22;7062;49.792;9.946;2023-06-14T04:47:22;19.40;79.60
13976;DHT22;7062;49.792;9.946;2023-06-14T04:49:50;19.30;79.50
13976;DHT22;7062;49.792;9.946;2023-06-14T04:52:19;19.30;79.80
13976;DHT22;7062;49.792;9.946;2023-06-14T04:54:46;19.40;80.10
13976;DHT22;7062;49.792;9.946;2023-06-14T04:57:12;19.40;80.10
13976;DHT22;7062;49.792;9.946;2023-06-14T04:59:43;19.40;80.00
13976;DHT22;7062;49.792;9.946;2023-06-14T05:02:12;19.40;80.10
13976;DHT22;7062;49.792;9.946;2023-06-14T05:04:38;19.40;80.10
13976;DHT22;7062;49.792;9.946;2023-06-14T05:07:09;19.40;80.10
13976;DHT22;7062;49.792;9.946;2023-06-14T05:09:36;19.40;80.30
13976;DHT22;7062;49.792;9.946;2023-06-14T05:12:02;19.40;80.30
13976;DHT22;7062;49.792;9.946;2023-06-14T05:14:28;19.50;80.50
13976;DHT22;7062;49.792;9.946;2023-06-14T05:16:53;19.40;80.40
13976;DHT22;7062;49.792;9.946;2023-06-14T05:19:19;19.40;80.50
13976;DHT22;7062;49.792;9.946;2023-06-14T05:21:47;19.50;80.40
13976;DHT22;7062;49.792;9.946;2023-06-14T05:24:13;19.40;80.50
13976;DHT22;7062;49.792;9.946;2023-06-14T05:26:39;19.40;80.80
13976;DHT22;7062;49.792;9.946;2023-06-14T05:29:05;19.40;81.10
13976;DHT22;7062;49.792;9.946;2023-06-14T05:31:31;19.40;80.70
13976;DHT22;7062;49.792;9.946;2023-06-14T05:33:56;19.50;80.70
13976;DHT22;7062;49.792;9.946;2023-06-14T05:36:22;19.30;81.20
13976;DHT22;7062;49.792;9.946;2023-06-14T05:38:48;19.40;81.30
13976;DHT22;7062;49.792;9.946;2023-06-14T05:41:14;19.40;81.40
13976;DHT22;7062;49.792;9.946;2023-06-14T05:43:39;19.40;81.20
13976;DHT22;7062;49.792;9.946;2023-06-14T05:46:05;19.40;81.40
13976;DHT22;7062;49.792;9.946;2023-06-14T05:48:31;19.40;81.70
13976;DHT22;7062;49.792;9.946;2023-06-14T05:50:56;19.40;81.70
13976;DHT22;7062;49.792;9.946;2023-06-14T05:53:22;19.50;81.50
13976;DHT22;7062;49.792;9.946;2023-06-14T05:55:48;19.50;81.90
13976;DHT22;7062;49.792;9.946;2023-06-14T05:58:14;19.60;81.70
13976;DHT22;7062;49.792;9.946;2023-06-14T06:00:40;19.60;81.40
13976;DHT22;7062;49.792;9.946;2023-06-14T06:03:05;19.70;81.30
13976;DHT22;7062;49.792;9.946;2023-06-14T06:05:33;19.70;81.20
13976;DHT22;7062;49.792;9.946;2023-06-14T06:07:59;19.70;81.00
13976;DHT22;7062;49.792;9.946;2023-06-14T06:10:25;19.80;81.00
13976;DHT22;7062;49.792;9.946;2023-06-14T06:12:51;19.80;81.20
13976;DHT22;7062;49.792;9.946;2023-06-14T06:15:17;19.90;81.40
13976;DHT22;7062;49.792;9.946;2023-06-14T06:17:44;19.90;81.10
13976;DHT22;7062;49.792;9.946;2023-06-14T06:20:10;20.00;80.90
13976;DHT22;7062;49.792;9.946;2023-06-14T06:22:37;20.00;80.80
13976;DHT22;7062;49.792;9.946;2023-06-14T06:25:03;20.00;81.00
13976;DHT22;7062;49.792;9.946;2023-06-14T06:27:28;20.00;81.10
13976;DHT22;7062;49.792;9.946;2023-06-14T06:29:54;20.00;81.00
13976;DHT22;7062;49.792;9.946;2023-06-14T06:32:20;20.10;81.00
13976;DHT22;7062;49.792;9.946;2023-06-14T06:34:45;20.10;81.20
13976;DHT22;7062;49.792;9.946;2023-06-14T06:37:11;20.00;81.00
13976;DHT22;7062;49.792;9.946;2023-06-14T06:39:37;20.10;81.30
13976;DHT22;7062;49.792;9.946;2023-06-14T06:42:03;20.00;81.40
13976;DHT22;7062;49.792;9.946;2023-06-14T06:44:28;20.10;81.30
13976;DHT22;7062;49.792;9.946;2023-06-14T06:46:54;20.20;81.20
13976;DHT22;7062;49.792;9.946;2023-06-14T06:49:20;20.20;81.40
13976;DHT22;7062;49.792;9.946;2023-06-14T06:51:59;20.10;81.50
13976;DHT22;7062;49.792;9.946;2023-06-14T06:54:26;20.10;81.50
13976;DHT22;7062;49.792;9.946;2023-06-14T06:56:51;20.10;81.50
13976;DHT22;7062;49.792;9.946;2023-06-14T06:59:17;20.10;81.60
13976;DHT22;7062;49.792;9.946;2023-06-14T07:01:43;20.20;81.70
13976;DHT22;7062;49.792;9.946;2023-06-14T07:04:08;20.20;81.60
13976;DHT22;7062;49.792;9.946;2023-06-14T07:06:34;20.20;81.60
13976;DHT22;7062;49.792;9.946;2023-06-14T07:08:59;20.20;81.60
13976;DHT22;7062;49.792;9.946;2023-06-14T07:11:27;20.20;81.80
13976;DHT22;7062;49.792;9.946;2023-06-14T07:13:52;20.30;81.50
13976;DHT22;7062;49.792;9.946;2023-06-14T07:16:18;20.40;81.60
13976;DHT22;7062;49.792;9.946;2023-06-14T07:18:44;20.50;81.40
13976;DHT22;7062;49.792;9.946;2023-06-14T07:21:09;20.50;81.20
13976;DHT22;7062;49.792;9.946;2023-06-14T07:23:35;20.50;81.00
13976;DHT22;7062;49.792;9.946;2023-06-14T07:26:01;20.50;81.00
13976;DHT22;7062;49.792;9.946;2023-06-14T07:28:27;20.50;81.10
13976;DHT22;7062;49.792;9.946;2023-06-14T07:30:52;20.50;80.90
13976;DHT22;7062;49.792;9.946;2023-06-14T07:33:18;20.50;81.00
13976;DHT22;7062;49.792;9.946;2023-06-14T07:35:43;20.50;81.00
13976;DHT22;7062;49.792;9.946;2023-06-14T07:38:09;20.60;81.00
13976;DHT22;7062;49.792;9.946;2023-06-14T07:40:35;20.50;81.00
13976;DHT22;7062;49.792;9.946;2023-06-14T07:43:00;20.60;80.70
13976;DHT22;7062;49.792;9.946;2023-06-14T07:45:27;20.70;80.30
13976;DHT22;7062;49.792;9.946;2023-06-14T07:47:53;20.70;80.50
13976;DHT22;7062;49.792;9.946;2023-06-14T07:50:19;20.80;80.90
13976;DHT22;7062;49.792;9.946;2023-06-14T07:52:45;20.80;80.30
13976;DHT22;7062;49.792;9.946;2023-06-14T07:55:11;20.80;80.10
13976;DHT22;7062;49.792;9.946;2023-06-14T07:57:36;20.80;80.20
13976;DHT22;7062;49.792;9.946;2023-06-14T08:00:03;20.80;80.10
13976;DHT22;7062;49.792;9.946;2023-06-14T08:02:31;20.80;79.90
13976;DHT22;7062;49.792;9.946;2023-06-14T08:04:57;20.90;80.30
13976;DHT22;7062;49.792;9.946;2023-06-14T08:07:23;21.00;80.00
13976;DHT22;7062;49.792;9.946;2023-06-14T08:09:50;21.00;79.70
13976;DHT22;7062;49.792;9.946;2023-06-14T08:12:15;21.10;79.80
13976;DHT22;7062;49.792;9.946;2023-06-14T08:14:42;21.10;79.20
13976;DHT22;7062;49.792;9.946;2023-06-14T08:17:07;21.20;79.40
13976;DHT22;7062;49.792;9.946;2023-06-14T08:19:33;21.30;79.40
13976;DHT22;7062;49.792;9.946;2023-06-14T08:21:59;21.30;79.10
13976;DHT22;7062;49.792;9.946;2023-06-14T08:24:25;21.40;78.90
13976;DHT22;7062;49.792;9.946;2023-06-14T08:26:53;21.30;79.10
13976;DHT22;7062;49.792;9.946;2023-06-14T08:29:18;21.40;79.20
13976;DHT22;7062;49.792;9.946;2023-06-14T08:31:45;21.40;79.10
13976;DHT22;7062;49.792;9.946;2023-06-14T08:34:10;21.50;79.00
13976;DHT22;7062;49.792;9.946;2023-06-14T08:36:36;21.60;78.50
13976;DHT22;7062;49.792;9.946;2023-06-14T08:39:02;21.70;78.50
13976;DHT22;7062;49.792;9.946;2023-06-14T08:41:28;21.80;78.40
13976;DHT22;7062;49.792;9.946;2023-06-14T08:43:55;21.90;77.90
13976;DHT22;7062;49.792;9.946;2023-06-14T08:46:21;21.90;77.70
13976;DHT22;7062;49.792;9.946;2023-06-14T08:48:51;22.00;77.60
13976;DHT22;7062;49.792;9.946;2023-06-14T08:51:19;22.00;77.40
13976;DHT22;7062;49.792;9.946;2023-06-14T08:53:45;22.10;77.00
13976;DHT22;7062;49.792;9.946;2023-06-14T08:56:12;22.10;76.80
13976;DHT22;7062;49.792;9.946;2023-06-14T08:58:48;22.20;76.80
13976;DHT22;7062;49.792;9.946;2023-06-14T09:01:15;22.20;76.10
13976;DHT22;7062;49.792;9.946;2023-06-14T09:03:43;22.30;76.30
13976;DHT22;7062;49.792;9.946;2023-06-14T09:06:10;22.50;79.40
13976;DHT22;7062;49.792;9.946;2023-06-14T09:08:46;22.60;79.80
13976;DHT22;7062;49.792;9.946;2023-06-14T09:11:15;22.60;77.30
13976;DHT22;7062;49.792;9.946;2023-06-14T09:13:42;22.70;75.20
13976;DHT22;7062;49.792;9.946;2023-06-14T09:16:08;22.80;76.30
13976;DHT22;7062;49.792;9.946;2023-06-14T09:18:43;22.90;75.50
13976;DHT22;7062;49.792;9.946;2023-06-14T09:21:10;23.00;75.40
13976;DHT22;7062;49.792;9.946;2023-06-14T09:23:41;23.10;75.40
13976;DHT22;7062;49.792;9.946;2023-06-14T09:26:08;23.10;73.00
13976;DHT22;7062;49.792;9.946;2023-06-14T09:28:35;23.20;73.90
13976;DHT22;7062;49.792;9.946;2023-06-14T09:31:01;23.30;72.00
13976;DHT22;7062;49.792;9.946;2023-06-14T09:33:27;23.20;72.20
13976;DHT22;7062;49.792;9.946;2023-06-14T09:35:55;23.20;73.20
13976;DHT22;7062;49.792;9.946;2023-06-14T09:38:21;23.10;71.70
13976;DHT22;7062;49.792;9.946;2023-06-14T09:40:47;23.20;71.80
13976;DHT22;7062;49.792;9.946;2023-06-14T09:43:12;23.30;71.00
13976;DHT22;7062;49.792;9.946;2023-06-14T09:45:39;23.40;71.00
13976;DHT22;7062;49.792;9.946;2023-06-14T09:48:09;23.40;70.80
13976;DHT22;7062;49.792;9.946;2023-06-14T09:50:35;23.40;71.00
13976;DHT22;7062;49.792;9.946;2023-06-14T09:53:07;23.50;71.00
13976;DHT22;7062;49.792;9.946;2023-06-14T09:55:37;23.60;70.60
13976;DHT22;7062;49.792;9.946;2023-06-14T09:58:07;23.80;70.70
13976;DHT22;7062;49.792;9.946;2023-06-14T10:00:34;24.00;70.00
13976;DHT22;7062;49.792;9.946;2023-06-14T10:03:14;24.10;69.00
13976;DHT22;7062;49.792;9.946;2023-06-14T10:05:44;24.00;68.90
13976;DHT22;7062;49.792;9.946;2023-06-14T10:08:14;24.00;69.30
13976;DHT22;7062;49.792;9.946;2023-06-14T10:10:42;24.00;69.30
13976;DHT22;7062;49.792;9.946;2023-06-14T10:13:08;24.10;69.20
13976;DHT22;7062;49.792;9.946;2023-06-14T10:15:55;24.20;68.90
13976;DHT22;7062;49.792;9.946;2023-06-14T10:21:36;24.30;68.00
13976;DHT22;7062;49.792;9.946;2023-06-14T10:24:06;24.40;67.40
13976;DHT22;7062;49.792;9.946;2023-06-14T10:26:33;24.50;66.50
13976;DHT22;7062;49.792;9.946;2023-06-14T10:29:07;24.40;67.00
13976;DHT22;7062;49.792;9.946;2023-06-14T10:31:45;24.40;67.20
13976;DHT22;7062;49.792;9.946;2023-06-14T10:34:12;24.30;67.00
13976;DHT22;7062;49.792;9.946;2023-06-14T10:36:41;24.40;67.20
13976;DHT22;7062;49.792;9.946;2023-06-14T10:39:14;24.60;66.50
13976;DHT22;7062;49.792;9.946;2023-06-14T10:41:41;24.90;64.70
13976;DHT22;7062;49.792;9.946;2023-06-14T10:46:39;25.20;64.00
13976;DHT22;7062;49.792;9.946;2023-06-14T10:49:06;25.30;63.70
13976;DHT22;7062;49.792;9.946;2023-06-14T10:51:42;25.20;65.00
13976;DHT22;7062;49.792;9.946;2023-06-14T10:54:17;25.30;63.50
13976;DHT22;7062;49.792;9.946;2023-06-14T10:56:51;25.40;63.20
13976;DHT22;7062;49.792;9.946;2023-06-14T10:59:17;25.70;64.60
13976;DHT22;7062;49.792;9.946;2023-06-14T11:04:52;25.90;63.40
13976;DHT22;7062;49.792;9.946;2023-06-14T11:07:52;25.80;63.50
13976;DHT22;7062;49.792;9.946;2023-06-14T11:10:49;25.70;64.10
13976;DHT22;7062;49.792;9.946;2023-06-14T11:13:18;25.70;62.70
13976;DHT22;7062;49.792;9.946;2023-06-14T11:15:45;25.70;62.40
13976;DHT22;7062;49.792;9.946;2023-06-14T11:18:13;25.80;62.50
13976;DHT22;7062;49.792;9.946;2023-06-14T11:20:39;26.10;61.70
13976;DHT22;7062;49.792;9.946;2023-06-14T11:23:05;26.20;61.80
13976;DHT22;7062;49.792;9.946;2023-06-14T11:25:31;26.50;61.20
13976;DHT22;7062;49.792;9.946;2023-06-14T11:27:58;26.80;60.70
13976;DHT22;7062;49.792;9.946;2023-06-14T11:30:26;27.20;60.00
13976;DHT22;7062;49.792;9.946;2023-06-14T11:32:54;27.70;59.40
13976;DHT22;7062;49.792;9.946;2023-06-14T11:35:23;27.70;59.10
13976;DHT22;7062;49.792;9.946;2023-06-14T11:37:56;27.80;58.20
13976;DHT22;7062;49.792;9.946;2023-06-14T11:40:24;27.60;58.20
13976;DHT22;7062;49.792;9.946;2023-06-14T11:42:53;27.40;58.30
13976;DHT22;7062;49.792;9.946;2023-06-14T11:45:23;27.00;58.80
13976;DHT22;7062;49.792;9.946;2023-06-14T11:47:48;26.90;59.10
13976;DHT22;7062;49.792;9.946;2023-06-14T11:50:14;26.90;59.20
13976;DHT22;7062;49.792;9.946;2023-06-14T11:52:40;27.10;59.10
13976;DHT22;7062;49.792;9.946;2023-06-14T11:55:06;27.40;58.80
13976;DHT22;7062;49.792;9.946;2023-06-14T11:57:35;27.70;58.20
13976;DHT22;7062;49.792;9.946;2023-06-14T12:00:06;27.60;57.60
13976;DHT22;7062;49.792;9.946;2023-06-14T12:02:37;27.40;57.90
13976;DHT22;7062;49.792;9.946;2023-06-14T12:05:07;27.20;58.00
13976;DHT22;7062;49.792;9.946;2023-06-14T12:07:37;27.20;58.30
13976;DHT22;7062;49.792;9.946;2023-06-14T12:12:38;27.20;58.10
13976;DHT22;7062;49.792;9.946;2023-06-14T12:15:07;27.10;58.10
13976;DHT22;7062;49.792;9.946;2023-06-14T12:17:36;26.90;58.90
13976;DHT22;7062;49.792;9.946;2023-06-14T12:20:08;27.20;58.10
13976;DHT22;7062;49.792;9.946;2023-06-14T12:22:46;27.50;57.60
13976;DHT22;7062;49.792;9.946;2023-06-14T12:25:33;27.70;57.00
13976;DHT22;7062;49.792;9.946;2023-06-14T12:28:06;28.10;56.70
13976;DHT22;7062;49.792;9.946;2023-06-14T12:30:33;28.20;55.80
13976;DHT22;7062;49.792;9.946;2023-06-14T12:33:01;27.90;56.00
13976;DHT22;7062;49.792;9.946;2023-06-14T12:35:27;27.40;56.60
13976;DHT22;7062;49.792;9.946;2023-06-14T12:37:52;27.20;57.10
13976;DHT22;7062;49.792;9.946;2023-06-14T12:40:18;27.40;57.60
13976;DHT22;7062;49.792;9.946;2023-06-14T12:42:44;27.90;57.30
13976;DHT22;7062;49.792;9.946;2023-06-14T12:45:19;28.10;56.10
13976;DHT22;7062;49.792;9.946;2023-06-14T12:47:45;28.10;56.40
13976;DHT22;7062;49.792;9.946;2023-06-14T12:50:11;28.30;56.00
13976;DHT22;7062;49.792;9.946;2023-06-14T12:52:37;28.20;55.70
13976;DHT22;7062;49.792;9.946;2023-06-14T12:55:04;28.30;55.90
13976;DHT22;7062;49.792;9.946;2023-06-14T12:57:29;28.20;56.10
13976;DHT22;7062;49.792;9.946;2023-06-14T12:59:55;28.40;55.50
13976;DHT22;7062;49.792;9.946;2023-06-14T13:02:21;28.60;54.60
13976;DHT22;7062;49.792;9.946;2023-06-14T13:04:50;28.70;54.90
13976;DHT22;7062;49.792;9.946;2023-06-14T13:07:16;28.70;54.80
13976;DHT22;7062;49.792;9.946;2023-06-14T13:09:42;28.80;55.50
13976;DHT22;7062;49.792;9.946;2023-06-14T13:12:10;28.60;55.70
13976;DHT22;7062;49.792;9.946;2023-06-14T13:14:37;28.30;55.70
13976;DHT22;7062;49.792;9.946;2023-06-14T13:17:03;28.00;56.10
13976;DHT22;7062;49.792;9.946;2023-06-14T13:19:28;27.70;56.40
13976;DHT22;7062;49.792;9.946;2023-06-14T13:21:54;27.60;56.70
13976;DHT22;7062;49.792;9.946;2023-06-14T13:24:20;27.60;56.30
13976;DHT22;7062;49.792;9.946;2023-06-14T13:26:45;27.80;56.30
13976;DHT22;7062;49.792;9.946;2023-06-14T13:29:11;28.10;56.00
13976;DHT22;7062;49.792;9.946;2023-06-14T13:31:36;28.50;55.60
13976;DHT22;7062;49.792;9.946;2023-06-14T13:34:02;28.90;54.80
13976;DHT22;7062;49.792;9.946;2023-06-14T13:36:28;29.30;54.50
13976;DHT22;7062;49.792;9.946;2023-06-14T13:38:55;29.70;53.40
13976;DHT22;7062;49.792;9.946;2023-06-14T13:41:21;30.00;53.20
13976;DHT22;7062;49.792;9.946;2023-06-14T13:43:46;30.20;52.70
13976;DHT22;7062;49.792;9.946;2023-06-14T13:46:13;30.00;52.80
13976;DHT22;7062;49.792;9.946;2023-06-14T13:48:38;29.80;53.10
13976;DHT22;7062;49.792;9.946;2023-06-14T13:51:04;29.50;53.30
13976;DHT22;7062;49.792;9.946;2023-06-14T13:53:30;29.50;53.30
13976;DHT22;7062;49.792;9.946;2023-06-14T13:55:55;29.70;53.30
13976;DHT22;7062;49.792;9.946;2023-06-14T13:58:21;30.10;52.40
13976;DHT22;7062;49.792;9.946;2023-06-14T14:00:48;29.90;52.10
13976;DHT22;7062;49.792;9.946;2023-06-14T14:03:14;29.50;52.30
13976;DHT22;7062;49.792;9.946;2023-06-14T14:05:40;29.10;52.40
13976;DHT22;7062;49.792;9.946;2023-06-14T14:08:05;28.50;52.80
13976;DHT22;7062;49.792;9.946;2023-06-14T14:10:31;28.20;53.40
13976;DHT22;7062;49.792;9.946;2023-06-14T14:12:57;28.10;54.00
13976;DHT22;7062;49.792;9.946;2023-06-14T14:15:22;27.90;54.40
13976;DHT22;7062;49.792;9.946;2023-06-14T14:17:48;27.90;54.40
13976;DHT22;7062;49.792;9.946;2023-06-14T14:20:13;27.90;54.60
13976;DHT22;7062;49.792;9.946;2023-06-14T14:22:42;28.20;54.40
13976;DHT22;7062;49.792;9.946;2023-06-14T14:25:08;28.30;54.30
13976;DHT22;7062;49.792;9.946;2023-06-14T14:27:34;28.40;54.30
13976;DHT22;7062;49.792;9.946;2023-06-14T14:30:00;28.50;54.20
13976;DHT22;7062;49.792;9.946;2023-06-14T14:32:25;28.60;53.70
13976;DHT22;7062;49.792;9.946;2023-06-14T14:34:51;28.80;52.80
13976;DHT22;7062;49.792;9.946;2023-06-14T14:37:16;28.90;52.80
13976;DHT22;7062;49.792;9.946;2023-06-14T14:39:44;29.10;52.60
13976;DHT22;7062;49.792;9.946;2023-06-14T14:42:11;29.40;52.50
13976;DHT22;7062;49.792;9.946;2023-06-14T14:44:38;29.50;52.40
13976;DHT22;7062;49.792;9.946;2023-06-14T14:47:03;29.60;52.40
13976;DHT22;7062;49.792;9.946;2023-06-14T14:49:31;29.60;52.70
13976;DHT22;7062;49.792;9.946;2023-06-14T14:51:56;29.60;52.60
13976;DHT22;7062;49.792;9.946;2023-06-14T14:54:22;29.60;52.30
13976;DHT22;7062;49.792;9.946;2023-06-14T14:56:49;29.60;52.40
13976;DHT22;7062;49.792;9.946;2023-06-14T14:59:14;29.40;52.10
13976;DHT22;7062;49.792;9.946;2023-06-14T15:01:40;29.30;52.60
13976;DHT22;7062;49.792;9.946;2023-06-14T15:04:06;29.00;52.80
13976;DHT22;7062;49.792;9.946;2023-06-14T15:06:32;28.70;53.00
13976;DHT22;7062;49.792;9.946;2023-06-14T15:09:01;28.50;53.40
13976;DHT22;7062;49.792;9.946;2023-06-14T15:11:26;28.40;53.30
13976;DHT22;7062;49.792;9.946;2023-06-14T15:13:52;28.20;53.50
13976;DHT22;7062;49.792;9.946;2023-06-14T15:16:18;27.90;53.70
13976;DHT22;7062;49.792;9.946;2023-06-14T15:18:43;27.70;53.30
13976;DHT22;7062;49.792;9.946;2023-06-14T15:21:09;27.70;53.90
13976;DHT22;7062;49.792;9.946;2023-06-14T15:23:35;27.80;53.60
13976;DHT22;7062;49.792;9.946;2023-06-14T15:26:00;27.80;54.00
13976;DHT22;7062;49.792;9.946;2023-06-14T15:28:26;27.90;53.90
13976;DHT22;7062;49.792;9.946;2023-06-14T15:30:58;28.20;53.50
13976;DHT22;7062;49.792;9.946;2023-06-14T15:33:23;28.30;53.30
13976;DHT22;7062;49.792;9.946;2023-06-14T15:35:49;28.40;53.10
13976;DHT22;7062;49.792;9.946;2023-06-14T15:38:15;28.40;53.20
13976;DHT22;7062;49.792;9.946;2023-06-14T15:40:41;28.40;53.20
13976;DHT22;7062;49.792;9.946;2023-06-14T15:43:06;28.50;53.10
13976;DHT22;7062;49.792;9.946;2023-06-14T15:45:32;28.50;53.80
13976;DHT22;7062;49.792;9.946;2023-06-14T15:47:57;28.30;54.30
13976;DHT22;7062;49.792;9.946;2023-06-14T15:50:23;28.20;54.50
13976;DHT22;7062;49.792;9.946;2023-06-14T15:52:49;27.90;54.60
13976;DHT22;7062;49.792;9.946;2023-06-14T15:55:15;27.80;54.90
13976;DHT22;7062;49.792;9.946;2023-06-14T15:57:40;27.70;55.00